Track Умняков Кирилл

Time Latitude Longitude Accuracy (66% radius in meters) Altitude (meters) Speed (km/hour) Bearing (degrees) Battery (%) GPS flag
11:14:10 44.694107 39.199230 3.7000000476837 42 22.206146240234 21.39999961853 49 1 delete
11:14:09 44.693918 39.199127 3.7000000476837 42.2 22.543804168701 20.89999961853 49 1 delete
11:14:08 44.693732 39.199023 3.7000000476837 41.6 22.167541503906 21.959999084473 49 1 delete
11:14:07 44.693545 39.198915 3.7000000476837 41.7 22.600423812866 21.719999313354 49 1 delete
11:14:06 44.693358 39.198805 3.7000000476837 41.9 22.429534912109 22.079999923706 49 1 delete
11:14:05 44.693175 39.198695 3.5999999046326 41.9 22.424903869629 23.319999694824 49 1 delete
11:14:04 44.692993 39.198568 3.5999999046326 42.5 22.395050048828 23.799999237061 49 1 delete
11:14:03 44.692797 39.198467 3.5999999046326 43.7 22.284898757935 24.059999465942 49 1 delete
11:14:02 44.692588 39.198378 3.7000000476837 46.1 22.510347366333 24.879999160767 49 1 delete
11:14:01 44.692412 39.198275 3.7999999523163 44.9 22.11040687561 24.340000152588 49 1 delete
11:14:00 44.692228 39.198168 3.9000000953674 45.4 21.847900390625 24.379999160767 49 1 delete
11:13:59 44.692048 39.198050 3.7999999523163 46.3 22.111436843872 25.030000686646 49 1 delete
11:13:58 44.691868 39.197927 3.7999999523163 47.9 21.640981674194 24.620000839233 49 1 delete
11:13:57 44.691678 39.197818 3.7000000476837 46.2 22.169086456299 24.620000839233 49 1 delete
11:13:56 44.691493 39.197717 3.7000000476837 43.6 21.541124343872 25.229999542236 49 1 delete
11:13:55 44.691305 39.197602 3.7999999523163 42.6 21.90863609314 25.75 49 1 delete
11:13:54 44.691145 39.197462 3.9000000953674 41.7 22.201513290405 27.389999389648 49 1 delete
11:13:53 44.691000 39.197320 4 41.1 22.214382171631 27.440000534058 49 1 delete
11:13:52 44.690830 39.197195 4 40.9 21.532890319824 26.010000228882 49 1 delete
11:13:51 44.690657 39.197065 4 41.1 22.038862228394 28.5 49 1 delete
11:13:50 44.690487 39.196930 4 40.8 21.519506454468 29.430000305176 49 1 delete
11:13:49 44.690317 39.196788 3.9000000953674 40.9 21.717674255371 29.360000610352 49 1 delete
11:13:48 44.690138 39.196655 3.7000000476837 41 22.044008255005 27.049999237061 49 1 delete
11:13:47 44.689965 39.196523 4 40.9 21.832458496094 29.35000038147 49 1 delete
11:13:46 44.689787 39.196387 3.9000000953674 40.4 22.57262802124 27.840000152588 49 1 delete
11:13:45 44.689602 39.196258 3.9000000953674 39.4 22.748662948608 28.860000610352 49 1 delete
11:13:44 44.689423 39.196130 3.9000000953674 39.1 22.518068313599 30.659999847412 49 1 delete
11:13:43 44.689248 39.196002 3.9000000953674 38.2 22.63645362854 30.389999389648 49 1 delete
11:13:42 44.689077 39.195862 3.7000000476837 37.3 22.613290786743 30.989999771118 49 1 delete
11:13:41 44.688900 39.195715 3.5 36.7 23.13779258728 31.489999771118 49 1 delete
11:13:40 44.688723 39.195572 3.5999999046326 36.5 22.708000183105 31.829999923706 49 1 delete
11:13:39 44.688548 39.195430 3.7999999523163 36.7 22.378063201904 32 49 1 delete
11:13:38 44.688372 39.195290 3.7999999523163 37.3 23.491407394409 31.940000534058 49 1 delete
11:13:37 44.688190 39.195160 3.7000000476837 37.7 23.590749740601 31.440000534058 49 1 delete
11:13:36 44.688020 39.195000 3.5999999046326 39.3 23.469789505005 32.610000610352 49 1 delete
11:13:35 44.687855 39.194827 3.5999999046326 41.7 23.492437362671 34.659999847412 49 1 delete
11:13:34 44.687697 39.194647 3.5999999046326 42.7 23.441993713379 33.900001525879 49 1 delete
11:13:33 44.687517 39.194473 3.5999999046326 43.4 23.496040344238 33.860000610352 49 1 delete
11:13:32 44.687345 39.194312 3.7000000476837 43.9 23.521776199341 33.799999237061 49 1 delete
11:13:31 44.687167 39.194150 3.7000000476837 40.8 23.440450668335 34.919998168945 49 1 delete
11:13:30 44.686997 39.193985 3.7000000476837 40.7 23.479568481445 34.529998779297 49 1 delete
11:13:29 44.686823 39.193815 3.7000000476837 40.6 23.493467330933 35.25 49 1 delete
11:13:28 44.686645 39.193645 3.7999999523163 40.5 23.880537033081 34.450000762939 49 1 delete
11:13:27 44.686475 39.193472 3.7000000476837 41.2 23.345741271973 36.349998474121 49 1 delete
11:13:26 44.686307 39.193300 3.7000000476837 42.7 23.091468811035 35.220001220703 49 1 delete
11:13:25 44.686133 39.193127 3.7999999523163 43.4 23.515085220337 35.090000152588 49 1 delete
11:13:24 44.685955 39.192955 3.7000000476837 41.2 23.628324508667 37.099998474121 49 1 delete
11:13:23 44.685783 39.192777 3.5999999046326 41.4 23.626779556274 36.900001525879 49 1 delete
11:13:22 44.685612 39.192592 3.5999999046326 42.2 23.618543624878 37.520000457764 49 1 delete
11:13:21 44.685442 39.192412 3.5999999046326 42.4 23.301990509033 37.810001373291 49 1 delete